Orange Grove, Texas
Current Conditions -  °F | °C
As of 6:56 PM on Monday 24 Nov 2014 (Local Time) from KNOG Reporting Station
Clear Clear  
Wind Chill: 54°   Ceiling: Unl
Heat Index: 54°   Visibility: 10mi
Dew Point: 38°   Wind: 7mph
Humidity: 55%   Direction: 360°N
Pressure: 30.1"   Gusts: NA
Location:  27.96°N, 97.94°W
Report Text: KNOG 250056Z AUTO 36006KT 10SM CLR 12/03 A3010 RMK AO2 SLP172 T01220033 $
Loading
Personal Weather Stations






























Interactive Weather Map New forecast layout! Learn more

10-Day Weather Forecast

Advertisements
Track Severe Weather on mobile